sensor_id;sensor_type;location;lat;lon;timestamp;temperature;humidity
24638;DHT22;12773;50.162;8.548;2023-06-26T00:01:50;20.70;99.90
24638;DHT22;12773;50.162;8.548;2023-06-26T00:04:37;20.80;99.90
24638;DHT22;12773;50.162;8.548;2023-06-26T00:07:25;20.70;99.90
24638;DHT22;12773;50.162;8.548;2023-06-26T00:10:12;20.60;99.90
24638;DHT22;12773;50.162;8.548;2023-06-26T00:13:00;20.50;99.90
24638;DHT22;12773;50.162;8.548;2023-06-26T00:15:48;20.50;99.90
24638;DHT22;12773;50.162;8.548;2023-06-26T00:18:36;20.50;99.90
24638;DHT22;12773;50.162;8.548;2023-06-26T00:21:24;20.50;99.90
24638;DHT22;12773;50.162;8.548;2023-06-26T00:24:12;20.40;99.90
24638;DHT22;12773;50.162;8.548;2023-06-26T00:27:00;20.40;99.90
24638;DHT22;12773;50.162;8.548;2023-06-26T00:29:47;20.40;99.90
24638;DHT22;12773;50.162;8.548;2023-06-26T00:32:35;20.40;99.90
24638;DHT22;12773;50.162;8.548;2023-06-26T00:35:24;20.40;99.90
24638;DHT22;12773;50.162;8.548;2023-06-26T00:38:11;20.40;99.90
24638;DHT22;12773;50.162;8.548;2023-06-26T00:40:59;20.40;99.90
24638;DHT22;12773;50.162;8.548;2023-06-26T00:43:46;20.30;99.90
24638;DHT22;12773;50.162;8.548;2023-06-26T00:46:34;20.20;99.90
24638;DHT22;12773;50.162;8.548;2023-06-26T00:49:22;20.10;99.90
24638;DHT22;12773;50.162;8.548;2023-06-26T00:52:10;20.10;99.90
24638;DHT22;12773;50.162;8.548;2023-06-26T00:54:58;20.10;99.90
24638;DHT22;12773;50.162;8.548;2023-06-26T00:57:46;20.00;99.90
24638;DHT22;12773;50.162;8.548;2023-06-26T01:00:34;20.00;99.90
24638;DHT22;12773;50.162;8.548;2023-06-26T01:03:25;19.80;99.90
24638;DHT22;12773;50.162;8.548;2023-06-26T01:06:14;19.70;99.90
24638;DHT22;12773;50.162;8.548;2023-06-26T01:09:03;19.60;99.90
24638;DHT22;12773;50.162;8.548;2023-06-26T01:11:50;19.70;99.90
24638;DHT22;12773;50.162;8.548;2023-06-26T01:14:38;19.70;99.90
24638;DHT22;12773;50.162;8.548;2023-06-26T01:17:27;19.70;99.90
24638;DHT22;12773;50.162;8.548;2023-06-26T01:20:17;19.70;99.90
24638;DHT22;12773;50.162;8.548;2023-06-26T01:23:18;19.60;99.90
24638;DHT22;12773;50.162;8.548;2023-06-26T01:29:01;19.60;99.90
24638;DHT22;12773;50.162;8.548;2023-06-26T01:31:49;19.60;99.90
24638;DHT22;12773;50.162;8.548;2023-06-26T01:34:37;19.60;99.90
24638;DHT22;12773;50.162;8.548;2023-06-26T01:37:25;19.40;99.90
24638;DHT22;12773;50.162;8.548;2023-06-26T01:40:13;19.30;99.90
24638;DHT22;12773;50.162;8.548;2023-06-26T01:43:00;19.30;99.90
24638;DHT22;12773;50.162;8.548;2023-06-26T01:45:50;19.30;99.90
24638;DHT22;12773;50.162;8.548;2023-06-26T01:48:59;19.20;99.90
24638;DHT22;12773;50.162;8.548;2023-06-26T01:51:54;19.20;99.90
24638;DHT22;12773;50.162;8.548;2023-06-26T01:57:48;19.10;99.90
24638;DHT22;12773;50.162;8.548;2023-06-26T02:00:37;18.90;99.90
24638;DHT22;12773;50.162;8.548;2023-06-26T02:03:25;18.90;99.90
24638;DHT22;12773;50.162;8.548;2023-06-26T02:06:13;18.90;99.90
24638;DHT22;12773;50.162;8.548;2023-06-26T02:09:00;18.90;99.90
24638;DHT22;12773;50.162;8.548;2023-06-26T02:11:48;18.80;99.90
24638;DHT22;12773;50.162;8.548;2023-06-26T02:14:36;18.80;99.90
24638;DHT22;12773;50.162;8.548;2023-06-26T02:17:24;18.80;99.90
24638;DHT22;12773;50.162;8.548;2023-06-26T02:20:12;18.90;99.90
24638;DHT22;12773;50.162;8.548;2023-06-26T02:22:59;18.90;99.90
24638;DHT22;12773;50.162;8.548;2023-06-26T02:25:46;18.90;99.90
24638;DHT22;12773;50.162;8.548;2023-06-26T02:28:34;18.90;99.90
24638;DHT22;12773;50.162;8.548;2023-06-26T02:31:21;19.00;99.90
24638;DHT22;12773;50.162;8.548;2023-06-26T02:34:09;19.00;99.90
24638;DHT22;12773;50.162;8.548;2023-06-26T02:37:16;18.90;99.90
24638;DHT22;12773;50.162;8.548;2023-06-26T02:40:04;18.80;99.90
24638;DHT22;12773;50.162;8.548;2023-06-26T02:42:51;18.70;99.90
24638;DHT22;12773;50.162;8.548;2023-06-26T02:45:39;18.70;99.90
24638;DHT22;12773;50.162;8.548;2023-06-26T02:48:26;18.70;99.90
24638;DHT22;12773;50.162;8.548;2023-06-26T02:51:14;18.80;99.90
24638;DHT22;12773;50.162;8.548;2023-06-26T02:54:01;18.80;99.90
24638;DHT22;12773;50.162;8.548;2023-06-26T02:56:50;18.80;99.90
24638;DHT22;12773;50.162;8.548;2023-06-26T02:59:37;18.70;99.90
24638;DHT22;12773;50.162;8.548;2023-06-26T03:02:26;18.50;99.90
24638;DHT22;12773;50.162;8.548;2023-06-26T03:05:13;18.40;99.90
24638;DHT22;12773;50.162;8.548;2023-06-26T03:08:01;18.40;99.90
24638;DHT22;12773;50.162;8.548;2023-06-26T03:10:49;18.40;99.90
24638;DHT22;12773;50.162;8.548;2023-06-26T03:13:37;18.40;99.90
24638;DHT22;12773;50.162;8.548;2023-06-26T03:16:24;18.30;99.90
24638;DHT22;12773;50.162;8.548;2023-06-26T03:19:12;18.30;99.90
24638;DHT22;12773;50.162;8.548;2023-06-26T03:22:00;18.30;99.90
24638;DHT22;12773;50.162;8.548;2023-06-26T03:24:48;18.20;99.90
24638;DHT22;12773;50.162;8.548;2023-06-26T03:27:35;18.10;99.90
24638;DHT22;12773;50.162;8.548;2023-06-26T03:30:23;18.10;99.90
24638;DHT22;12773;50.162;8.548;2023-06-26T03:33:10;18.10;99.90
24638;DHT22;12773;50.162;8.548;2023-06-26T03:35:58;18.00;99.90
24638;DHT22;12773;50.162;8.548;2023-06-26T03:38:45;18.00;99.90
24638;DHT22;12773;50.162;8.548;2023-06-26T03:41:32;18.00;99.90
24638;DHT22;12773;50.162;8.548;2023-06-26T03:44:22;18.10;99.90
24638;DHT22;12773;50.162;8.548;2023-06-26T03:47:09;18.00;99.90
24638;DHT22;12773;50.162;8.548;2023-06-26T03:49:57;17.80;99.90
24638;DHT22;12773;50.162;8.548;2023-06-26T03:52:45;17.80;99.90
24638;DHT22;12773;50.162;8.548;2023-06-26T03:55:32;17.80;99.90
24638;DHT22;12773;50.162;8.548;2023-06-26T03:58:20;17.90;99.90
24638;DHT22;12773;50.162;8.548;2023-06-26T04:01:07;17.90;99.90
24638;DHT22;12773;50.162;8.548;2023-06-26T04:03:55;18.00;99.90
24638;DHT22;12773;50.162;8.548;2023-06-26T04:06:43;18.00;99.90
24638;DHT22;12773;50.162;8.548;2023-06-26T04:09:30;18.10;99.90
24638;DHT22;12773;50.162;8.548;2023-06-26T04:12:18;18.00;99.90
24638;DHT22;12773;50.162;8.548;2023-06-26T04:15:06;18.00;99.90
24638;DHT22;12773;50.162;8.548;2023-06-26T04:17:54;18.10;99.90
24638;DHT22;12773;50.162;8.548;2023-06-26T04:23:33;18.40;99.90
24638;DHT22;12773;50.162;8.548;2023-06-26T04:26:21;18.50;99.90
24638;DHT22;12773;50.162;8.548;2023-06-26T04:29:09;18.60;99.90
24638;DHT22;12773;50.162;8.548;2023-06-26T04:31:56;18.70;99.90
24638;DHT22;12773;50.162;8.548;2023-06-26T04:34:45;18.80;99.90
24638;DHT22;12773;50.162;8.548;2023-06-26T04:37:34;18.80;99.90
24638;DHT22;12773;50.162;8.548;2023-06-26T04:40:23;18.90;99.90
24638;DHT22;12773;50.162;8.548;2023-06-26T04:43:10;19.00;99.90
24638;DHT22;12773;50.162;8.548;2023-06-26T04:45:58;19.10;99.90
24638;DHT22;12773;50.162;8.548;2023-06-26T04:48:45;19.30;99.90
24638;DHT22;12773;50.162;8.548;2023-06-26T04:51:33;19.50;99.90
24638;DHT22;12773;50.162;8.548;2023-06-26T04:54:22;19.60;99.90
24638;DHT22;12773;50.162;8.548;2023-06-26T04:57:10;19.70;99.90
24638;DHT22;12773;50.162;8.548;2023-06-26T04:59:58;19.80;99.90
24638;DHT22;12773;50.162;8.548;2023-06-26T05:02:46;19.90;99.90
24638;DHT22;12773;50.162;8.548;2023-06-26T05:05:33;20.10;99.90
24638;DHT22;12773;50.162;8.548;2023-06-26T05:08:25;20.30;99.90
24638;DHT22;12773;50.162;8.548;2023-06-26T05:11:14;20.40;99.90
24638;DHT22;12773;50.162;8.548;2023-06-26T05:14:01;20.60;99.90
24638;DHT22;12773;50.162;8.548;2023-06-26T05:16:49;20.80;99.90
24638;DHT22;12773;50.162;8.548;2023-06-26T05:19:36;20.90;99.90
24638;DHT22;12773;50.162;8.548;2023-06-26T05:22:24;21.10;99.90
24638;DHT22;12773;50.162;8.548;2023-06-26T05:25:13;21.20;99.90
24638;DHT22;12773;50.162;8.548;2023-06-26T05:28:02;21.40;99.90
24638;DHT22;12773;50.162;8.548;2023-06-26T05:30:51;21.50;99.90
24638;DHT22;12773;50.162;8.548;2023-06-26T05:33:39;21.70;99.90
24638;DHT22;12773;50.162;8.548;2023-06-26T05:36:29;21.80;99.90
24638;DHT22;12773;50.162;8.548;2023-06-26T05:39:17;21.90;99.90
24638;DHT22;12773;50.162;8.548;2023-06-26T05:42:06;21.90;99.90
24638;DHT22;12773;50.162;8.548;2023-06-26T05:44:53;21.90;99.90
24638;DHT22;12773;50.162;8.548;2023-06-26T05:47:41;22.00;99.90
24638;DHT22;12773;50.162;8.548;2023-06-26T05:50:29;22.10;99.90
24638;DHT22;12773;50.162;8.548;2023-06-26T05:53:17;22.10;99.90
24638;DHT22;12773;50.162;8.548;2023-06-26T05:56:04;22.20;99.90
24638;DHT22;12773;50.162;8.548;2023-06-26T05:58:52;22.30;99.90
24638;DHT22;12773;50.162;8.548;2023-06-26T06:01:40;22.50;99.90
24638;DHT22;12773;50.162;8.548;2023-06-26T06:04:28;22.70;99.90
24638;DHT22;12773;50.162;8.548;2023-06-26T06:07:16;22.80;99.90
24638;DHT22;12773;50.162;8.548;2023-06-26T06:10:04;22.90;99.90
24638;DHT22;12773;50.162;8.548;2023-06-26T06:12:51;22.80;99.90
24638;DHT22;12773;50.162;8.548;2023-06-26T06:15:41;22.80;99.90
24638;DHT22;12773;50.162;8.548;2023-06-26T06:18:28;22.80;99.90
24638;DHT22;12773;50.162;8.548;2023-06-26T06:21:16;22.80;99.90
24638;DHT22;12773;50.162;8.548;2023-06-26T06:24:04;23.00;99.90
24638;DHT22;12773;50.162;8.548;2023-06-26T06:26:53;23.20;99.90
24638;DHT22;12773;50.162;8.548;2023-06-26T06:29:41;23.40;99.90
24638;DHT22;12773;50.162;8.548;2023-06-26T06:32:28;23.50;99.90
24638;DHT22;12773;50.162;8.548;2023-06-26T06:35:18;23.50;99.90
24638;DHT22;12773;50.162;8.548;2023-06-26T06:38:07;23.60;99.90
24638;DHT22;12773;50.162;8.548;2023-06-26T06:40:54;23.70;99.90
24638;DHT22;12773;50.162;8.548;2023-06-26T06:43:42;23.80;99.90
24638;DHT22;12773;50.162;8.548;2023-06-26T06:46:30;23.90;99.90
24638;DHT22;12773;50.162;8.548;2023-06-26T06:49:18;24.00;99.90
24638;DHT22;12773;50.162;8.548;2023-06-26T06:52:05;24.20;99.90
24638;DHT22;12773;50.162;8.548;2023-06-26T06:54:54;24.10;99.90
24638;DHT22;12773;50.162;8.548;2023-06-26T06:57:44;24.20;99.90
24638;DHT22;12773;50.162;8.548;2023-06-26T07:00:31;24.20;99.90
24638;DHT22;12773;50.162;8.548;2023-06-26T07:03:19;24.30;99.90
24638;DHT22;12773;50.162;8.548;2023-06-26T07:06:07;24.40;99.90
24638;DHT22;12773;50.162;8.548;2023-06-26T07:08:55;24.40;99.90
24638;DHT22;12773;50.162;8.548;2023-06-26T07:11:42;24.50;99.90
24638;DHT22;12773;50.162;8.548;2023-06-26T07:14:30;24.70;99.90
24638;DHT22;12773;50.162;8.548;2023-06-26T07:17:17;24.70;99.90
24638;DHT22;12773;50.162;8.548;2023-06-26T07:20:06;24.80;99.90
24638;DHT22;12773;50.162;8.548;2023-06-26T07:22:55;24.90;99.90
24638;DHT22;12773;50.162;8.548;2023-06-26T07:25:43;25.00;99.90
24638;DHT22;12773;50.162;8.548;2023-06-26T07:28:30;25.00;99.90
24638;DHT22;12773;50.162;8.548;2023-06-26T07:31:18;25.10;99.90
24638;DHT22;12773;50.162;8.548;2023-06-26T07:34:06;25.10;99.90
24638;DHT22;12773;50.162;8.548;2023-06-26T07:36:53;25.30;99.90
24638;DHT22;12773;50.162;8.548;2023-06-26T07:39:40;25.40;99.90
24638;DHT22;12773;50.162;8.548;2023-06-26T07:42:28;25.50;99.90
24638;DHT22;12773;50.162;8.548;2023-06-26T07:45:16;25.40;99.90
24638;DHT22;12773;50.162;8.548;2023-06-26T07:48:05;25.60;99.90
24638;DHT22;12773;50.162;8.548;2023-06-26T07:50:53;25.80;99.90
24638;DHT22;12773;50.162;8.548;2023-06-26T07:53:41;25.90;99.90
24638;DHT22;12773;50.162;8.548;2023-06-26T07:56:29;25.90;99.90
24638;DHT22;12773;50.162;8.548;2023-06-26T07:59:16;25.90;99.90
24638;DHT22;12773;50.162;8.548;2023-06-26T08:02:04;25.90;99.90
24638;DHT22;12773;50.162;8.548;2023-06-26T08:04:51;26.20;99.90
24638;DHT22;12773;50.162;8.548;2023-06-26T08:07:39;26.40;99.90
24638;DHT22;12773;50.162;8.548;2023-06-26T08:10:27;26.60;99.90
24638;DHT22;12773;50.162;8.548;2023-06-26T08:13:15;26.80;99.90
24638;DHT22;12773;50.162;8.548;2023-06-26T08:16:03;26.80;99.90
24638;DHT22;12773;50.162;8.548;2023-06-26T08:18:50;26.90;99.90
24638;DHT22;12773;50.162;8.548;2023-06-26T08:21:38;27.10;99.90
24638;DHT22;12773;50.162;8.548;2023-06-26T08:24:25;27.30;99.90
24638;DHT22;12773;50.162;8.548;2023-06-26T08:27:13;27.50;99.90
24638;DHT22;12773;50.162;8.548;2023-06-26T08:30:00;27.60;99.90
24638;DHT22;12773;50.162;8.548;2023-06-26T08:32:47;27.50;99.10
24638;DHT22;12773;50.162;8.548;2023-06-26T08:35:36;27.40;99.10
24638;DHT22;12773;50.162;8.548;2023-06-26T08:38:24;27.30;98.80
24638;DHT22;12773;50.162;8.548;2023-06-26T08:41:11;27.40;99.30
24638;DHT22;12773;50.162;8.548;2023-06-26T08:43:59;27.60;99.60
24638;DHT22;12773;50.162;8.548;2023-06-26T08:46:47;27.80;98.60
24638;DHT22;12773;50.162;8.548;2023-06-26T08:49:46;27.70;96.90
24638;DHT22;12773;50.162;8.548;2023-06-26T08:52:33;27.90;97.70
24638;DHT22;12773;50.162;8.548;2023-06-26T08:55:23;28.00;96.70
24638;DHT22;12773;50.162;8.548;2023-06-26T08:58:13;28.30;96.50
24638;DHT22;12773;50.162;8.548;2023-06-26T09:01:01;28.60;96.20
24638;DHT22;12773;50.162;8.548;2023-06-26T09:03:48;28.70;96.00
24638;DHT22;12773;50.162;8.548;2023-06-26T09:06:36;28.90;96.60
24638;DHT22;12773;50.162;8.548;2023-06-26T09:09:24;29.10;95.60
24638;DHT22;12773;50.162;8.548;2023-06-26T09:12:11;29.00;94.20
24638;DHT22;12773;50.162;8.548;2023-06-26T09:14:58;28.70;93.90
24638;DHT22;12773;50.162;8.548;2023-06-26T09:17:47;28.60;95.60
24638;DHT22;12773;50.162;8.548;2023-06-26T09:20:36;28.50;94.90
24638;DHT22;12773;50.162;8.548;2023-06-26T09:23:24;28.50;94.90
24638;DHT22;12773;50.162;8.548;2023-06-26T09:26:11;28.70;95.10
24638;DHT22;12773;50.162;8.548;2023-06-26T09:28:59;28.70;95.00
24638;DHT22;12773;50.162;8.548;2023-06-26T09:31:47;28.90;95.20
24638;DHT22;12773;50.162;8.548;2023-06-26T09:34:34;29.00;95.30
24638;DHT22;12773;50.162;8.548;2023-06-26T09:37:22;29.10;95.10
24638;DHT22;12773;50.162;8.548;2023-06-26T09:40:10;29.40;95.80
24638;DHT22;12773;50.162;8.548;2023-06-26T09:43:07;29.20;94.30
24638;DHT22;12773;50.162;8.548;2023-06-26T09:45:55;29.20;95.10
24638;DHT22;12773;50.162;8.548;2023-06-26T09:48:42;29.20;95.00
24638;DHT22;12773;50.162;8.548;2023-06-26T09:51:31;29.40;94.90
24638;DHT22;12773;50.162;8.548;2023-06-26T09:54:21;29.40;95.30
24638;DHT22;12773;50.162;8.548;2023-06-26T09:57:09;29.70;95.10
24638;DHT22;12773;50.162;8.548;2023-06-26T09:59:58;30.00;94.00
24638;DHT22;12773;50.162;8.548;2023-06-26T10:02:46;30.20;93.60
24638;DHT22;12773;50.162;8.548;2023-06-26T10:05:34;30.20;92.80
24638;DHT22;12773;50.162;8.548;2023-06-26T10:08:21;30.30;93.00
24638;DHT22;12773;50.162;8.548;2023-06-26T10:11:11;30.50;92.10
24638;DHT22;12773;50.162;8.548;2023-06-26T10:14:01;30.60;92.90
24638;DHT22;12773;50.162;8.548;2023-06-26T10:16:52;30.70;93.80
24638;DHT22;12773;50.162;8.548;2023-06-26T10:19:42;31.20;93.00
24638;DHT22;12773;50.162;8.548;2023-06-26T10:22:33;31.40;89.80
24638;DHT22;12773;50.162;8.548;2023-06-26T10:25:21;31.20;89.80
24638;DHT22;12773;50.162;8.548;2023-06-26T10:28:12;31.30;87.70
24638;DHT22;12773;50.162;8.548;2023-06-26T10:31:01;31.20;84.20
24638;DHT22;12773;50.162;8.548;2023-06-26T10:33:50;31.10;86.10
24638;DHT22;12773;50.162;8.548;2023-06-26T10:36:39;30.90;81.90
24638;DHT22;12773;50.162;8.548;2023-06-26T10:39:26;30.70;82.70
24638;DHT22;12773;50.162;8.548;2023-06-26T10:42:13;30.60;82.40
24638;DHT22;12773;50.162;8.548;2023-06-26T10:45:23;30.90;82.00
24638;DHT22;12773;50.162;8.548;2023-06-26T10:48:12;30.90;81.50
24638;DHT22;12773;50.162;8.548;2023-06-26T10:51:12;31.00;84.20
24638;DHT22;12773;50.162;8.548;2023-06-26T10:53:56;31.30;85.00
24638;DHT22;12773;50.162;8.548;2023-06-26T10:56:49;31.20;81.70
24638;DHT22;12773;50.162;8.548;2023-06-26T10:59:39;31.40;84.70
24638;DHT22;12773;50.162;8.548;2023-06-26T11:02:27;31.20;84.10
24638;DHT22;12773;50.162;8.548;2023-06-26T11:05:26;31.00;84.30
24638;DHT22;12773;50.162;8.548;2023-06-26T11:08:14;31.00;83.70
24638;DHT22;12773;50.162;8.548;2023-06-26T11:11:03;30.90;84.20
24638;DHT22;12773;50.162;8.548;2023-06-26T11:13:52;30.60;83.60
24638;DHT22;12773;50.162;8.548;2023-06-26T11:16:42;30.60;85.10
24638;DHT22;12773;50.162;8.548;2023-06-26T11:19:30;30.90;83.70
24638;DHT22;12773;50.162;8.548;2023-06-26T11:22:18;30.90;83.60
24638;DHT22;12773;50.162;8.548;2023-06-26T11:25:07;30.80;84.70
24638;DHT22;12773;50.162;8.548;2023-06-26T11:27:55;30.60;85.30
24638;DHT22;12773;50.162;8.548;2023-06-26T11:30:43;30.30;87.70
24638;DHT22;12773;50.162;8.548;2023-06-26T11:33:30;30.60;85.00
24638;DHT22;12773;50.162;8.548;2023-06-26T11:36:19;30.50;84.20
24638;DHT22;12773;50.162;8.548;2023-06-26T11:39:06;30.50;82.30
24638;DHT22;12773;50.162;8.548;2023-06-26T11:41:54;30.70;85.40
24638;DHT22;12773;50.162;8.548;2023-06-26T11:44:42;31.10;82.50
24638;DHT22;12773;50.162;8.548;2023-06-26T11:47:29;31.00;80.90
24638;DHT22;12773;50.162;8.548;2023-06-26T11:50:17;30.70;82.50
24638;DHT22;12773;50.162;8.548;2023-06-26T11:53:05;31.20;82.40
24638;DHT22;12773;50.162;8.548;2023-06-26T11:55:53;31.10;84.30
24638;DHT22;12773;50.162;8.548;2023-06-26T11:59:07;31.10;80.90
24638;DHT22;12773;50.162;8.548;2023-06-26T12:01:56;30.80;81.40
24638;DHT22;12773;50.162;8.548;2023-06-26T12:04:44;30.70;82.30
24638;DHT22;12773;50.162;8.548;2023-06-26T12:07:32;30.30;81.20
24638;DHT22;12773;50.162;8.548;2023-06-26T12:10:22;30.20;81.70
24638;DHT22;12773;50.162;8.548;2023-06-26T12:13:10;30.70;83.80
24638;DHT22;12773;50.162;8.548;2023-06-26T12:15:58;30.80;84.80
24638;DHT22;12773;50.162;8.548;2023-06-26T12:18:45;30.60;85.50
24638;DHT22;12773;50.162;8.548;2023-06-26T12:24:30;30.80;85.10
24638;DHT22;12773;50.162;8.548;2023-06-26T12:27:19;30.90;85.30
24638;DHT22;12773;50.162;8.548;2023-06-26T12:30:06;30.70;86.70
24638;DHT22;12773;50.162;8.548;2023-06-26T12:32:54;30.60;86.10
24638;DHT22;12773;50.162;8.548;2023-06-26T12:35:41;30.60;88.00
24638;DHT22;12773;50.162;8.548;2023-06-26T12:38:36;30.50;86.30
24638;DHT22;12773;50.162;8.548;2023-06-26T12:41:26;30.30;86.30
24638;DHT22;12773;50.162;8.548;2023-06-26T12:44:21;30.10;86.50
24638;DHT22;12773;50.162;8.548;2023-06-26T12:47:08;30.00;87.50
24638;DHT22;12773;50.162;8.548;2023-06-26T12:49:57;30.00;86.60
24638;DHT22;12773;50.162;8.548;2023-06-26T12:52:44;29.80;87.70
24638;DHT22;12773;50.162;8.548;2023-06-26T12:55:32;29.80;87.40
24638;DHT22;12773;50.162;8.548;2023-06-26T12:58:20;29.90;86.70
24638;DHT22;12773;50.162;8.548;2023-06-26T13:01:07;29.90;87.10
24638;DHT22;12773;50.162;8.548;2023-06-26T13:03:56;30.00;87.50
24638;DHT22;12773;50.162;8.548;2023-06-26T13:06:44;29.90;88.70
24638;DHT22;12773;50.162;8.548;2023-06-26T13:09:33;30.50;86.00
24638;DHT22;12773;50.162;8.548;2023-06-26T13:12:21;30.40;86.50
24638;DHT22;12773;50.162;8.548;2023-06-26T13:15:09;30.70;85.80
24638;DHT22;12773;50.162;8.548;2023-06-26T13:17:57;30.80;83.30
24638;DHT22;12773;50.162;8.548;2023-06-26T13:20:45;30.70;83.10
24638;DHT22;12773;50.162;8.548;2023-06-26T13:23:34;30.60;83.50
24638;DHT22;12773;50.162;8.548;2023-06-26T13:26:22;30.40;83.40
24638;DHT22;12773;50.162;8.548;2023-06-26T13:29:13;30.70;82.20
24638;DHT22;12773;50.162;8.548;2023-06-26T13:32:01;30.70;79.60
24638;DHT22;12773;50.162;8.548;2023-06-26T13:34:48;30.90;80.70
24638;DHT22;12773;50.162;8.548;2023-06-26T13:37:36;31.10;81.20
24638;DHT22;12773;50.162;8.548;2023-06-26T13:40:23;30.20;81.70
24638;DHT22;12773;50.162;8.548;2023-06-26T13:43:11;29.50;82.60
24638;DHT22;12773;50.162;8.548;2023-06-26T13:46:01;29.60;84.30
24638;DHT22;12773;50.162;8.548;2023-06-26T13:48:49;29.40;83.20
24638;DHT22;12773;50.162;8.548;2023-06-26T13:51:37;29.50;82.30
24638;DHT22;12773;50.162;8.548;2023-06-26T13:54:26;29.30;83.80
24638;DHT22;12773;50.162;8.548;2023-06-26T13:57:14;29.40;80.30
24638;DHT22;12773;50.162;8.548;2023-06-26T14:00:02;29.60;80.40
24638;DHT22;12773;50.162;8.548;2023-06-26T14:02:51;29.90;80.10
24638;DHT22;12773;50.162;8.548;2023-06-26T14:05:38;29.80;77.90
24638;DHT22;12773;50.162;8.548;2023-06-26T14:08:27;29.70;79.60
24638;DHT22;12773;50.162;8.548;2023-06-26T14:11:15;29.70;79.10
24638;DHT22;12773;50.162;8.548;2023-06-26T14:14:02;30.30;77.60
24638;DHT22;12773;50.162;8.548;2023-06-26T14:16:50;30.10;75.60
24638;DHT22;12773;50.162;8.548;2023-06-26T14:19:37;30.00;76.10
24638;DHT22;12773;50.162;8.548;2023-06-26T14:22:25;30.30;75.20
24638;DHT22;12773;50.162;8.548;2023-06-26T14:25:13;30.60;74.80
24638;DHT22;12773;50.162;8.548;2023-06-26T14:28:01;30.50;70.60
24638;DHT22;12773;50.162;8.548;2023-06-26T14:30:48;30.00;69.30
24638;DHT22;12773;50.162;8.548;2023-06-26T14:33:36;29.80;70.70
24638;DHT22;12773;50.162;8.548;2023-06-26T14:36:33;29.60;71.50
24638;DHT22;12773;50.162;8.548;2023-06-26T14:39:20;29.70;69.20
24638;DHT22;12773;50.162;8.548;2023-06-26T14:42:08;29.70;70.40
24638;DHT22;12773;50.162;8.548;2023-06-26T14:44:56;29.60;70.50
24638;DHT22;12773;50.162;8.548;2023-06-26T14:47:44;29.80;69.10
24638;DHT22;12773;50.162;8.548;2023-06-26T14:50:33;29.80;70.20
24638;DHT22;12773;50.162;8.548;2023-06-26T14:53:20;29.60;68.40
24638;DHT22;12773;50.162;8.548;2023-06-26T14:56:07;29.70;67.50
24638;DHT22;12773;50.162;8.548;2023-06-26T14:58:55;29.40;67.90
24638;DHT22;12773;50.162;8.548;2023-06-26T15:01:42;29.20;69.10
24638;DHT22;12773;50.162;8.548;2023-06-26T15:04:31;29.10;68.90
24638;DHT22;12773;50.162;8.548;2023-06-26T15:07:19;29.10;70.40
24638;DHT22;12773;50.162;8.548;2023-06-26T15:10:07;29.20;67.10
24638;DHT22;12773;50.162;8.548;2023-06-26T15:12:54;29.00;66.00
24638;DHT22;12773;50.162;8.548;2023-06-26T15:15:41;29.00;65.90
24638;DHT22;12773;50.162;8.548;2023-06-26T15:18:29;29.10;66.70
24638;DHT22;12773;50.162;8.548;2023-06-26T15:21:17;28.50;66.10
24638;DHT22;12773;50.162;8.548;2023-06-26T15:24:04;28.50;66.70
24638;DHT22;12773;50.162;8.548;2023-06-26T15:26:52;28.80;65.50
24638;DHT22;12773;50.162;8.548;2023-06-26T15:29:39;29.10;65.10
24638;DHT22;12773;50.162;8.548;2023-06-26T15:32:28;28.90;64.40
24638;DHT22;12773;50.162;8.548;2023-06-26T15:35:15;29.00;66.90
24638;DHT22;12773;50.162;8.548;2023-06-26T15:38:03;29.20;63.70
24638;DHT22;12773;50.162;8.548;2023-06-26T15:40:52;29.00;63.70
24638;DHT22;12773;50.162;8.548;2023-06-26T15:43:39;29.00;65.90
24638;DHT22;12773;50.162;8.548;2023-06-26T15:46:28;29.20;64.90
24638;DHT22;12773;50.162;8.548;2023-06-26T15:49:16;29.10;64.60
24638;DHT22;12773;50.162;8.548;2023-06-26T15:52:04;29.30;65.60
24638;DHT22;12773;50.162;8.548;2023-06-26T15:54:51;29.80;62.40
24638;DHT22;12773;50.162;8.548;2023-06-26T15:57:39;29.10;60.00
24638;DHT22;12773;50.162;8.548;2023-06-26T16:00:26;28.50;61.00
24638;DHT22;12773;50.162;8.548;2023-06-26T16:03:14;28.50;61.80
24638;DHT22;12773;50.162;8.548;2023-06-26T16:06:02;28.70;62.20
24638;DHT22;12773;50.162;8.548;2023-06-26T16:08:49;28.90;60.50
24638;DHT22;12773;50.162;8.548;2023-06-26T16:11:38;29.30;59.90
24638;DHT22;12773;50.162;8.548;2023-06-26T16:14:26;29.60;59.80
24638;DHT22;12773;50.162;8.548;2023-06-26T16:17:13;29.30;58.90
24638;DHT22;12773;50.162;8.548;2023-06-26T16:20:01;28.90;59.60
24638;DHT22;12773;50.162;8.548;2023-06-26T16:22:48;29.00;60.00
24638;DHT22;12773;50.162;8.548;2023-06-26T16:25:36;28.70;58.50
24638;DHT22;12773;50.162;8.548;2023-06-26T16:28:24;28.70;59.10
24638;DHT22;12773;50.162;8.548;2023-06-26T16:31:11;29.10;59.50
24638;DHT22;12773;50.162;8.548;2023-06-26T16:34:00;29.30;58.70
24638;DHT22;12773;50.162;8.548;2023-06-26T16:36:48;29.60;57.70
24638;DHT22;12773;50.162;8.548;2023-06-26T16:39:36;28.90;58.10
24638;DHT22;12773;50.162;8.548;2023-06-26T16:42:25;28.80;58.50
24638;DHT22;12773;50.162;8.548;2023-06-26T16:45:12;28.40;58.80
24638;DHT22;12773;50.162;8.548;2023-06-26T16:48:00;28.50;58.90
24638;DHT22;12773;50.162;8.548;2023-06-26T16:50:47;28.40;59.20
24638;DHT22;12773;50.162;8.548;2023-06-26T16:53:35;27.90;59.50
24638;DHT22;12773;50.162;8.548;2023-06-26T16:56:22;27.60;60.20
24638;DHT22;12773;50.162;8.548;2023-06-26T16:59:10;27.80;60.50
24638;DHT22;12773;50.162;8.548;2023-06-26T17:01:59;27.90;60.80
24638;DHT22;12773;50.162;8.548;2023-06-26T17:04:48;27.80;60.80
24638;DHT22;12773;50.162;8.548;2023-06-26T17:07:37;28.00;61.30
24638;DHT22;12773;50.162;8.548;2023-06-26T17:10:26;28.40;60.30
24638;DHT22;12773;50.162;8.548;2023-06-26T17:13:14;28.50;59.20
24638;DHT22;12773;50.162;8.548;2023-06-26T17:16:01;28.40;58.80
24638;DHT22;12773;50.162;8.548;2023-06-26T17:18:49;28.40;59.50
24638;DHT22;12773;50.162;8.548;2023-06-26T17:21:37;28.30;59.80
24638;DHT22;12773;50.162;8.548;2023-06-26T17:24:24;28.20;59.70
24638;DHT22;12773;50.162;8.548;2023-06-26T17:27:14;27.70;59.50
24638;DHT22;12773;50.162;8.548;2023-06-26T17:30:04;27.70;59.50
24638;DHT22;12773;50.162;8.548;2023-06-26T17:32:52;28.10;59.80
24638;DHT22;12773;50.162;8.548;2023-06-26T17:35:40;28.10;59.50
24638;DHT22;12773;50.162;8.548;2023-06-26T17:38:28;27.70;59.40
24638;DHT22;12773;50.162;8.548;2023-06-26T17:41:19;27.60;60.10
24638;DHT22;12773;50.162;8.548;2023-06-26T17:44:06;27.30;60.30
24638;DHT22;12773;50.162;8.548;2023-06-26T17:46:59;27.10;61.00
24638;DHT22;12773;50.162;8.548;2023-06-26T17:49:42;26.80;62.10
24638;DHT22;12773;50.162;8.548;2023-06-26T17:52:30;26.80;62.50
24638;DHT22;12773;50.162;8.548;2023-06-26T17:55:17;26.60;61.90